sensor_id;sensor_type;location;lat;lon;timestamp;temperature;humidity
74155;DHT22;62509;46.248;6.018;2023-09-18T00:01:25;18.50;99.90
74155;DHT22;62509;46.248;6.018;2023-09-18T00:06:32;18.60;99.90
74155;DHT22;62509;46.248;6.018;2023-09-18T00:11:35;18.70;99.90
74155;DHT22;62509;46.248;6.018;2023-09-18T00:16:39;18.90;99.90
74155;DHT22;62509;46.248;6.018;2023-09-18T00:22:00;18.90;99.90
74155;DHT22;62509;46.248;6.018;2023-09-18T00:27:03;19.00;99.90
74155;DHT22;62509;46.248;6.018;2023-09-18T00:32:07;18.90;99.90
74155;DHT22;62509;46.248;6.018;2023-09-18T00:37:11;18.90;99.90
74155;DHT22;62509;46.248;6.018;2023-09-18T00:42:15;19.00;99.90
74155;DHT22;62509;46.248;6.018;2023-09-18T00:47:19;19.00;99.90
74155;DHT22;62509;46.248;6.018;2023-09-18T00:52:24;19.00;99.90
74155;DHT22;62509;46.248;6.018;2023-09-18T00:57:28;20.20;99.90
74155;DHT22;62509;46.248;6.018;2023-09-18T01:02:31;21.20;94.60
74155;DHT22;62509;46.248;6.018;2023-09-18T01:07:36;21.60;90.30
74155;DHT22;62509;46.248;6.018;2023-09-18T01:12:41;22.10;79.10
74155;DHT22;62509;46.248;6.018;2023-09-18T01:17:47;22.20;76.30
74155;DHT22;62509;46.248;6.018;2023-09-18T01:22:53;21.80;82.00
74155;DHT22;62509;46.248;6.018;2023-09-18T01:27:56;21.00;94.90
74155;DHT22;62509;46.248;6.018;2023-09-18T01:32:59;20.70;98.50
74155;DHT22;62509;46.248;6.018;2023-09-18T01:38:04;20.60;98.60
74155;DHT22;62509;46.248;6.018;2023-09-18T01:43:08;20.40;99.90
74155;DHT22;62509;46.248;6.018;2023-09-18T01:48:12;20.30;99.90
74155;DHT22;62509;46.248;6.018;2023-09-18T01:53:16;20.20;99.90
74155;DHT22;62509;46.248;6.018;2023-09-18T01:58:20;20.20;99.90
74155;DHT22;62509;46.248;6.018;2023-09-18T02:03:23;20.20;99.90
74155;DHT22;62509;46.248;6.018;2023-09-18T02:08:48;20.00;99.90
74155;DHT22;62509;46.248;6.018;2023-09-18T02:13:52;19.90;99.90
74155;DHT22;62509;46.248;6.018;2023-09-18T02:18:55;19.90;99.90
74155;DHT22;62509;46.248;6.018;2023-09-18T02:24:00;19.80;99.90
74155;DHT22;62509;46.248;6.018;2023-09-18T02:29:05;19.80;99.90
74155;DHT22;62509;46.248;6.018;2023-09-18T02:34:11;19.90;99.90
74155;DHT22;62509;46.248;6.018;2023-09-18T02:39:16;19.60;99.90
74155;DHT22;62509;46.248;6.018;2023-09-18T02:44:19;19.50;99.90
74155;DHT22;62509;46.248;6.018;2023-09-18T02:49:23;19.60;99.90
74155;DHT22;62509;46.248;6.018;2023-09-18T02:54:27;19.60;99.90
74155;DHT22;62509;46.248;6.018;2023-09-18T02:59:31;19.80;99.90
74155;DHT22;62509;46.248;6.018;2023-09-18T03:04:34;19.90;99.90
74155;DHT22;62509;46.248;6.018;2023-09-18T03:09:39;19.90;99.90
74155;DHT22;62509;46.248;6.018;2023-09-18T03:14:42;19.90;99.90
74155;DHT22;62509;46.248;6.018;2023-09-18T03:19:47;19.80;99.90
74155;DHT22;62509;46.248;6.018;2023-09-18T03:24:52;19.80;99.90
74155;DHT22;62509;46.248;6.018;2023-09-18T03:29:55;19.80;99.90
74155;DHT22;62509;46.248;6.018;2023-09-18T03:34:59;19.60;99.90
74155;DHT22;62509;46.248;6.018;2023-09-18T03:40:04;19.60;99.90
74155;DHT22;62509;46.248;6.018;2023-09-18T03:45:09;19.60;99.90
74155;DHT22;62509;46.248;6.018;2023-09-18T03:50:12;19.40;99.90
74155;DHT22;62509;46.248;6.018;2023-09-18T03:55:17;19.60;99.90
74155;DHT22;62509;46.248;6.018;2023-09-18T04:00:20;19.70;98.40
74155;DHT22;62509;46.248;6.018;2023-09-18T04:05:24;19.70;99.00
74155;DHT22;62509;46.248;6.018;2023-09-18T04:10:29;20.00;87.80
74155;DHT22;62509;46.248;6.018;2023-09-18T04:15:32;20.30;78.80
74155;DHT22;62509;46.248;6.018;2023-09-18T04:20:39;20.10;85.60
74155;DHT22;62509;46.248;6.018;2023-09-18T04:25:44;19.80;82.90
74155;DHT22;62509;46.248;6.018;2023-09-18T04:30:48;20.10;78.90
74155;DHT22;62509;46.248;6.018;2023-09-18T04:35:51;20.10;80.70
74155;DHT22;62509;46.248;6.018;2023-09-18T04:40:59;19.70;94.10
74155;DHT22;62509;46.248;6.018;2023-09-18T04:46:03;19.50;95.60
74155;DHT22;62509;46.248;6.018;2023-09-18T04:51:08;19.10;98.70
74155;DHT22;62509;46.248;6.018;2023-09-18T04:56:13;18.80;99.90
74155;DHT22;62509;46.248;6.018;2023-09-18T05:01:17;18.70;99.90
74155;DHT22;62509;46.248;6.018;2023-09-18T05:06:20;18.70;99.90
74155;DHT22;62509;46.248;6.018;2023-09-18T05:11:25;18.70;99.90
74155;DHT22;62509;46.248;6.018;2023-09-18T05:16:29;18.40;99.90
74155;DHT22;62509;46.248;6.018;2023-09-18T05:21:36;18.40;99.90
74155;DHT22;62509;46.248;6.018;2023-09-18T05:26:41;18.40;99.90
74155;DHT22;62509;46.248;6.018;2023-09-18T05:31:45;18.50;99.90
74155;DHT22;62509;46.248;6.018;2023-09-18T05:36:48;18.30;99.90
74155;DHT22;62509;46.248;6.018;2023-09-18T05:41:53;18.00;99.90
74155;DHT22;62509;46.248;6.018;2023-09-18T05:46:56;17.90;99.90
74155;DHT22;62509;46.248;6.018;2023-09-18T05:51:59;17.90;99.90
74155;DHT22;62509;46.248;6.018;2023-09-18T05:57:04;17.80;99.90
74155;DHT22;62509;46.248;6.018;2023-09-18T06:02:08;17.80;99.90
74155;DHT22;62509;46.248;6.018;2023-09-18T06:07:12;17.60;99.90
74155;DHT22;62509;46.248;6.018;2023-09-18T06:12:17;17.60;99.90
74155;DHT22;62509;46.248;6.018;2023-09-18T06:17:20;17.60;99.90
74155;DHT22;62509;46.248;6.018;2023-09-18T06:22:24;17.40;99.90
74155;DHT22;62509;46.248;6.018;2023-09-18T06:27:28;17.50;99.90
74155;DHT22;62509;46.248;6.018;2023-09-18T06:32:33;17.50;99.90
74155;DHT22;62509;46.248;6.018;2023-09-18T06:37:39;17.40;99.90
74155;DHT22;62509;46.248;6.018;2023-09-18T06:42:43;17.50;99.90
74155;DHT22;62509;46.248;6.018;2023-09-18T06:47:47;17.40;99.90
74155;DHT22;62509;46.248;6.018;2023-09-18T06:52:52;17.60;99.90
74155;DHT22;62509;46.248;6.018;2023-09-18T06:57:56;17.40;99.90
74155;DHT22;62509;46.248;6.018;2023-09-18T07:03:00;17.40;99.90
74155;DHT22;62509;46.248;6.018;2023-09-18T07:08:06;17.30;99.90
74155;DHT22;62509;46.248;6.018;2023-09-18T07:13:15;17.30;99.90
74155;DHT22;62509;46.248;6.018;2023-09-18T07:18:18;17.30;99.90
74155;DHT22;62509;46.248;6.018;2023-09-18T07:23:21;17.30;99.90
74155;DHT22;62509;46.248;6.018;2023-09-18T07:28:26;17.40;99.90
74155;DHT22;62509;46.248;6.018;2023-09-18T07:33:30;17.50;99.90
74155;DHT22;62509;46.248;6.018;2023-09-18T07:38:33;17.40;99.90
74155;DHT22;62509;46.248;6.018;2023-09-18T07:43:38;17.40;99.90
74155;DHT22;62509;46.248;6.018;2023-09-18T07:48:42;17.30;99.90
74155;DHT22;62509;46.248;6.018;2023-09-18T07:53:46;17.30;99.90
74155;DHT22;62509;46.248;6.018;2023-09-18T07:58:51;17.20;99.90
74155;DHT22;62509;46.248;6.018;2023-09-18T08:03:55;17.20;99.90
74155;DHT22;62509;46.248;6.018;2023-09-18T08:09:01;17.20;99.90
74155;DHT22;62509;46.248;6.018;2023-09-18T08:14:07;17.10;99.90
74155;DHT22;62509;46.248;6.018;2023-09-18T08:19:11;16.90;99.90
74155;DHT22;62509;46.248;6.018;2023-09-18T08:24:18;17.20;99.90
74155;DHT22;62509;46.248;6.018;2023-09-18T08:29:23;17.30;99.90
74155;DHT22;62509;46.248;6.018;2023-09-18T08:34:26;17.40;99.90
74155;DHT22;62509;46.248;6.018;2023-09-18T08:39:33;17.40;99.90
74155;DHT22;62509;46.248;6.018;2023-09-18T08:44:39;17.40;99.90
74155;DHT22;62509;46.248;6.018;2023-09-18T08:49:44;17.40;99.90
74155;DHT22;62509;46.248;6.018;2023-09-18T08:54:49;17.10;99.90
74155;DHT22;62509;46.248;6.018;2023-09-18T08:59:55;17.00;99.90
74155;DHT22;62509;46.248;6.018;2023-09-18T09:04:59;16.90;99.90
74155;DHT22;62509;46.248;6.018;2023-09-18T09:10:03;17.10;99.90
74155;DHT22;62509;46.248;6.018;2023-09-18T09:15:08;17.20;99.90
74155;DHT22;62509;46.248;6.018;2023-09-18T09:20:13;17.20;99.90
74155;DHT22;62509;46.248;6.018;2023-09-18T09:25:24;17.30;99.90
74155;DHT22;62509;46.248;6.018;2023-09-18T09:30:30;17.40;99.90
74155;DHT22;62509;46.248;6.018;2023-09-18T09:35:35;17.40;99.90
74155;DHT22;62509;46.248;6.018;2023-09-18T09:40:39;17.50;99.90
74155;DHT22;62509;46.248;6.018;2023-09-18T09:45:44;17.40;99.90
74155;DHT22;62509;46.248;6.018;2023-09-18T09:50:48;17.20;99.90
74155;DHT22;62509;46.248;6.018;2023-09-18T09:55:54;17.10;99.90
74155;DHT22;62509;46.248;6.018;2023-09-18T10:01:01;17.10;99.90
74155;DHT22;62509;46.248;6.018;2023-09-18T10:06:10;17.20;99.90
74155;DHT22;62509;46.248;6.018;2023-09-18T10:11:14;17.30;99.90
74155;DHT22;62509;46.248;6.018;2023-09-18T10:16:21;17.20;99.90
74155;DHT22;62509;46.248;6.018;2023-09-18T10:21:35;17.20;99.90
74155;DHT22;62509;46.248;6.018;2023-09-18T10:26:44;17.20;99.90
74155;DHT22;62509;46.248;6.018;2023-09-18T10:31:55;17.20;99.90
74155;DHT22;62509;46.248;6.018;2023-09-18T10:36:59;17.10;99.90
74155;DHT22;62509;46.248;6.018;2023-09-18T10:42:04;17.20;99.90
74155;DHT22;62509;46.248;6.018;2023-09-18T10:47:11;17.20;99.90
74155;DHT22;62509;46.248;6.018;2023-09-18T10:52:16;17.20;99.90
74155;DHT22;62509;46.248;6.018;2023-09-18T10:57:19;17.30;99.90
74155;DHT22;62509;46.248;6.018;2023-09-18T11:02:26;17.30;99.90
74155;DHT22;62509;46.248;6.018;2023-09-18T11:07:31;17.20;99.90
74155;DHT22;62509;46.248;6.018;2023-09-18T11:12:43;17.10;99.90
74155;DHT22;62509;46.248;6.018;2023-09-18T11:17:55;17.20;99.90
74155;DHT22;62509;46.248;6.018;2023-09-18T11:23:09;17.20;99.90
74155;DHT22;62509;46.248;6.018;2023-09-18T11:28:22;17.20;99.90
74155;DHT22;62509;46.248;6.018;2023-09-18T11:33:34;17.20;99.90
74155;DHT22;62509;46.248;6.018;2023-09-18T11:38:51;17.10;99.90
74155;DHT22;62509;46.248;6.018;2023-09-18T11:49:41;17.10;99.90
74155;DHT22;62509;46.248;6.018;2023-09-18T11:54:51;17.00;99.90
74155;DHT22;62509;46.248;6.018;2023-09-18T11:59:56;17.10;99.90
74155;DHT22;62509;46.248;6.018;2023-09-18T12:05:15;17.30;99.90
74155;DHT22;62509;46.248;6.018;2023-09-18T12:10:19;17.30;99.90
74155;DHT22;62509;46.248;6.018;2023-09-18T12:15:23;17.40;99.90
74155;DHT22;62509;46.248;6.018;2023-09-18T12:20:28;17.40;99.90
74155;DHT22;62509;46.248;6.018;2023-09-18T12:25:33;17.60;99.90
74155;DHT22;62509;46.248;6.018;2023-09-18T12:30:36;17.70;99.90
74155;DHT22;62509;46.248;6.018;2023-09-18T12:35:41;17.70;99.90
74155;DHT22;62509;46.248;6.018;2023-09-18T12:40:45;17.70;99.90
74155;DHT22;62509;46.248;6.018;2023-09-18T12:45:48;17.60;99.90
74155;DHT22;62509;46.248;6.018;2023-09-18T12:50:53;17.60;99.90
74155;DHT22;62509;46.248;6.018;2023-09-18T12:56:04;17.60;99.90
74155;DHT22;62509;46.248;6.018;2023-09-18T13:01:08;17.70;99.90
74155;DHT22;62509;46.248;6.018;2023-09-18T13:06:16;18.00;99.90
74155;DHT22;62509;46.248;6.018;2023-09-18T13:11:20;18.20;99.90
74155;DHT22;62509;46.248;6.018;2023-09-18T13:16:24;18.60;99.90
74155;DHT22;62509;46.248;6.018;2023-09-18T13:21:29;18.70;99.90
74155;DHT22;62509;46.248;6.018;2023-09-18T13:26:32;18.60;99.90
74155;DHT22;62509;46.248;6.018;2023-09-18T13:31:35;18.70;99.90
74155;DHT22;62509;46.248;6.018;2023-09-18T13:36:40;18.70;99.90
74155;DHT22;62509;46.248;6.018;2023-09-18T13:41:43;18.80;99.90
74155;DHT22;62509;46.248;6.018;2023-09-18T13:46:47;19.10;99.90
74155;DHT22;62509;46.248;6.018;2023-09-18T13:51:52;19.30;99.90
74155;DHT22;62509;46.248;6.018;2023-09-18T13:56:58;19.30;99.90
74155;DHT22;62509;46.248;6.018;2023-09-18T14:02:01;19.10;99.90
74155;DHT22;62509;46.248;6.018;2023-09-18T14:07:08;19.30;99.90
74155;DHT22;62509;46.248;6.018;2023-09-18T14:12:12;19.60;99.90
74155;DHT22;62509;46.248;6.018;2023-09-18T14:17:16;19.90;99.90
74155;DHT22;62509;46.248;6.018;2023-09-18T14:22:25;20.00;99.90
74155;DHT22;62509;46.248;6.018;2023-09-18T14:27:29;20.00;99.90
74155;DHT22;62509;46.248;6.018;2023-09-18T14:32:32;19.90;99.90
74155;DHT22;62509;46.248;6.018;2023-09-18T14:37:39;20.20;99.90
74155;DHT22;62509;46.248;6.018;2023-09-18T14:42:42;20.50;99.30
74155;DHT22;62509;46.248;6.018;2023-09-18T14:47:45;20.40;95.60
74155;DHT22;62509;46.248;6.018;2023-09-18T14:52:50;20.20;97.40
74155;DHT22;62509;46.248;6.018;2023-09-18T14:57:54;20.20;98.70
74155;DHT22;62509;46.248;6.018;2023-09-18T15:02:57;20.20;95.50
74155;DHT22;62509;46.248;6.018;2023-09-18T15:08:03;20.30;94.30
74155;DHT22;62509;46.248;6.018;2023-09-18T15:13:07;20.20;94.70
74155;DHT22;62509;46.248;6.018;2023-09-18T15:18:11;20.10;95.80
74155;DHT22;62509;46.248;6.018;2023-09-18T15:23:16;20.20;95.20
74155;DHT22;62509;46.248;6.018;2023-09-18T15:28:19;20.30;94.40
74155;DHT22;62509;46.248;6.018;2023-09-18T15:33:23;20.20;93.30
74155;DHT22;62509;46.248;6.018;2023-09-18T15:38:28;20.10;94.30
74155;DHT22;62509;46.248;6.018;2023-09-18T15:43:32;20.10;94.00
74155;DHT22;62509;46.248;6.018;2023-09-18T15:48:36;20.10;94.60
74155;DHT22;62509;46.248;6.018;2023-09-18T15:53:41;20.10;95.60
74155;DHT22;62509;46.248;6.018;2023-09-18T15:58:44;20.00;94.90
74155;DHT22;62509;46.248;6.018;2023-09-18T16:03:47;20.10;95.60
74155;DHT22;62509;46.248;6.018;2023-09-18T16:08:53;20.10;94.90
74155;DHT22;62509;46.248;6.018;2023-09-18T16:13:59;20.10;95.40
74155;DHT22;62509;46.248;6.018;2023-09-18T16:19:02;20.00;96.30
74155;DHT22;62509;46.248;6.018;2023-09-18T16:24:07;20.00;94.80
74155;DHT22;62509;46.248;6.018;2023-09-18T16:29:11;19.80;94.80
74155;DHT22;62509;46.248;6.018;2023-09-18T16:34:15;19.80;95.20
74155;DHT22;62509;46.248;6.018;2023-09-18T16:39:19;19.80;93.60
74155;DHT22;62509;46.248;6.018;2023-09-18T16:44:25;19.70;93.80
74155;DHT22;62509;46.248;6.018;2023-09-18T16:49:28;19.70;94.00
74155;DHT22;62509;46.248;6.018;2023-09-18T16:54:33;19.50;94.90
74155;DHT22;62509;46.248;6.018;2023-09-18T16:59:36;19.30;96.60
74155;DHT22;62509;46.248;6.018;2023-09-18T17:04:40;19.20;98.80
74155;DHT22;62509;46.248;6.018;2023-09-18T17:09:53;19.10;99.70
74155;DHT22;62509;46.248;6.018;2023-09-18T17:14:56;19.00;99.90
74155;DHT22;62509;46.248;6.018;2023-09-18T17:20:00;18.90;99.90
74155;DHT22;62509;46.248;6.018;2023-09-18T17:25:07;18.90;99.90
74155;DHT22;62509;46.248;6.018;2023-09-18T17:30:11;18.70;99.90
74155;DHT22;62509;46.248;6.018;2023-09-18T17:35:16;18.60;99.90
74155;DHT22;62509;46.248;6.018;2023-09-18T17:40:21;18.50;99.90
74155;DHT22;62509;46.248;6.018;2023-09-18T17:45:24;18.30;99.90
74155;DHT22;62509;46.248;6.018;2023-09-18T17:50:28;18.20;99.90
74155;DHT22;62509;46.248;6.018;2023-09-18T17:55:33;18.10;99.90
74155;DHT22;62509;46.248;6.018;2023-09-18T18:00:37;17.90;99.90
74155;DHT22;62509;46.248;6.018;2023-09-18T18:05:43;17.90;99.90
74155;DHT22;62509;46.248;6.018;2023-09-18T18:10:48;17.90;99.90
74155;DHT22;62509;46.248;6.018;2023-09-18T18:15:51;17.70;99.90
74155;DHT22;62509;46.248;6.018;2023-09-18T18:20:55;17.70;99.90
74155;DHT22;62509;46.248;6.018;2023-09-18T18:26:01;17.80;99.90
74155;DHT22;62509;46.248;6.018;2023-09-18T18:31:05;17.60;99.90
74155;DHT22;62509;46.248;6.018;2023-09-18T18:36:09;17.40;99.90
74155;DHT22;62509;46.248;6.018;2023-09-18T18:41:15;17.20;99.90
74155;DHT22;62509;46.248;6.018;2023-09-18T18:46:18;17.10;99.90
74155;DHT22;62509;46.248;6.018;2023-09-18T18:51:22;17.10;99.90
74155;DHT22;62509;46.248;6.018;2023-09-18T18:56:27;17.00;99.90
74155;DHT22;62509;46.248;6.018;2023-09-18T19:01:30;17.10;99.90
74155;DHT22;62509;46.248;6.018;2023-09-18T19:06:35;16.90;99.90
74155;DHT22;62509;46.248;6.018;2023-09-18T19:11:39;16.80;99.90
74155;DHT22;62509;46.248;6.018;2023-09-18T19:16:43;16.80;99.90
74155;DHT22;62509;46.248;6.018;2023-09-18T19:21:46;16.70;99.90
74155;DHT22;62509;46.248;6.018;2023-09-18T19:26:51;16.80;99.90
74155;DHT22;62509;46.248;6.018;2023-09-18T19:31:55;16.70;99.90
74155;DHT22;62509;46.248;6.018;2023-09-18T19:36:58;16.50;99.90
74155;DHT22;62509;46.248;6.018;2023-09-18T19:42:11;16.50;99.90
74155;DHT22;62509;46.248;6.018;2023-09-18T19:47:14;16.50;99.90
74155;DHT22;62509;46.248;6.018;2023-09-18T19:52:17;16.40;99.90
74155;DHT22;62509;46.248;6.018;2023-09-18T19:57:22;16.40;99.90
74155;DHT22;62509;46.248;6.018;2023-09-18T20:02:25;16.40;99.90
74155;DHT22;62509;46.248;6.018;2023-09-18T20:07:30;16.30;99.90
74155;DHT22;62509;46.248;6.018;2023-09-18T20:12:35;16.20;99.90
74155;DHT22;62509;46.248;6.018;2023-09-18T20:17:38;16.30;99.90
74155;DHT22;62509;46.248;6.018;2023-09-18T20:22:42;16.20;99.90
74155;DHT22;62509;46.248;6.018;2023-09-18T20:27:47;16.40;99.90
74155;DHT22;62509;46.248;6.018;2023-09-18T20:32:50;16.60;99.90
74155;DHT22;62509;46.248;6.018;2023-09-18T20:37:54;16.60;99.90
74155;DHT22;62509;46.248;6.018;2023-09-18T20:42:58;16.80;99.90
74155;DHT22;62509;46.248;6.018;2023-09-18T20:48:02;16.80;99.90
74155;DHT22;62509;46.248;6.018;2023-09-18T20:53:08;16.90;99.90
74155;DHT22;62509;46.248;6.018;2023-09-18T20:58:13;16.80;99.90
74155;DHT22;62509;46.248;6.018;2023-09-18T21:03:16;16.70;99.90
74155;DHT22;62509;46.248;6.018;2023-09-18T21:08:20;16.70;99.90
74155;DHT22;62509;46.248;6.018;2023-09-18T21:13:25;16.40;99.90
74155;DHT22;62509;46.248;6.018;2023-09-18T21:18:30;16.50;99.90
74155;DHT22;62509;46.248;6.018;2023-09-18T21:23:33;16.50;99.90
74155;DHT22;62509;46.248;6.018;2023-09-18T21:28:38;16.40;99.90
74155;DHT22;62509;46.248;6.018;2023-09-18T21:33:42;16.40;99.90
74155;DHT22;62509;46.248;6.018;2023-09-18T21:38:47;16.40;99.90
74155;DHT22;62509;46.248;6.018;2023-09-18T21:43:52;16.40;99.90
74155;DHT22;62509;46.248;6.018;2023-09-18T21:48:56;16.50;99.90
74155;DHT22;62509;46.248;6.018;2023-09-18T21:53:59;16.50;99.90
74155;DHT22;62509;46.248;6.018;2023-09-18T21:59:04;16.40;99.90
74155;DHT22;62509;46.248;6.018;2023-09-18T22:04:07;16.30;99.90
74155;DHT22;62509;46.248;6.018;2023-09-18T22:09:12;16.30;99.90
74155;DHT22;62509;46.248;6.018;2023-09-18T22:14:16;16.20;99.90
74155;DHT22;62509;46.248;6.018;2023-09-18T22:19:20;16.40;99.90
74155;DHT22;62509;46.248;6.018;2023-09-18T22:24:23;16.30;99.90
74155;DHT22;62509;46.248;6.018;2023-09-18T22:29:28;16.30;99.90
74155;DHT22;62509;46.248;6.018;2023-09-18T22:34:31;16.30;99.90
74155;DHT22;62509;46.248;6.018;2023-09-18T22:56:32;16.20;99.90
74155;DHT22;62509;46.248;6.018;2023-09-18T23:01:35;16.20;99.90
74155;DHT22;62509;46.248;6.018;2023-09-18T23:06:39;16.20;99.90
74155;DHT22;62509;46.248;6.018;2023-09-18T23:11:45;16.20;99.90
74155;DHT22;62509;46.248;6.018;2023-09-18T23:16:49;16.10;99.90
74155;DHT22;62509;46.248;6.018;2023-09-18T23:21:53;16.00;99.90
74155;DHT22;62509;46.248;6.018;2023-09-18T23:26:58;16.10;99.90
74155;DHT22;62509;46.248;6.018;2023-09-18T23:32:02;16.20;99.90
74155;DHT22;62509;46.248;6.018;2023-09-18T23:37:07;16.20;99.90
74155;DHT22;62509;46.248;6.018;2023-09-18T23:42:12;16.30;99.90
74155;DHT22;62509;46.248;6.018;2023-09-18T23:47:16;16.30;99.90
74155;DHT22;62509;46.248;6.018;2023-09-18T23:52:21;16.20;99.90
74155;DHT22;62509;46.248;6.018;2023-09-18T23:57:27;16.30;99.90
